RYR39C EPSC-EPKK
Flight info
| Callsign | RYR39C |
|---|---|
| Flight time | 0h 50m |
| Altitude | 37000 |
| Route | APNEZ DCT DENKO L619 ADVAB L623 UWLER |
| Aircraft | B738/M-SDE2E3FGHIRWXY/LB1 |
Departure
| Time | 2026-04-15 10:06 |
|---|---|
| Airport | Solidarity Szczecin–Goleniów Airport (EPSC) |
Arrival
| Time | 2026-04-15 10:57 |
|---|---|
| Airport | Kraków John Paul II International Airport (EPKK) |
| Time | Latitude | Longitude | Altitude | Speed | Heading |
|---|---|---|---|---|---|
| 2026-04-15 09:41 | 53.59278 | 14.89322 | 141 ft | 0 kts | 40° |
| 2026-04-15 09:57 | 53.59273 | 14.89315 | 141 ft | 4 kts | 40° |
| 2026-04-15 09:57 | 53.59253 | 14.89285 | 141 ft | 4 kts | 41° |
| 2026-04-15 09:57 | 53.59233 | 14.89256 | 141 ft | 3 kts | 41° |
| 2026-04-15 09:57 | 53.59218 | 14.89228 | 141 ft | 4 kts | 77° |
| 2026-04-15 09:58 | 53.59222 | 14.89191 | 141 ft | 4 kts | 129° |
| 2026-04-15 09:58 | 53.59231 | 14.89174 | 141 ft | 1 kts | 131° |
| 2026-04-15 09:58 | 53.59231 | 14.89173 | 141 ft | 0 kts | 131° |
| 2026-04-15 10:01 | 53.59229 | 14.89177 | 141 ft | 4 kts | 131° |
| 2026-04-15 10:01 | 53.59177 | 14.89280 | 141 ft | 15 kts | 130° |
| 2026-04-15 10:01 | 53.59110 | 14.89413 | 141 ft | 15 kts | 131° |
| 2026-04-15 10:01 | 53.59026 | 14.89572 | 140 ft | 22 kts | 131° |
| 2026-04-15 10:02 | 53.58923 | 14.89774 | 139 ft | 23 kts | 131° |
| 2026-04-15 10:02 | 53.58816 | 14.89983 | 139 ft | 24 kts | 131° |
| 2026-04-15 10:02 | 53.58711 | 14.90186 | 140 ft | 23 kts | 130° |
| 2026-04-15 10:02 | 53.58610 | 14.90384 | 141 ft | 22 kts | 131° |
| 2026-04-15 10:03 | 53.58510 | 14.90577 | 143 ft | 23 kts | 131° |
| 2026-04-15 10:03 | 53.58403 | 14.90785 | 145 ft | 23 kts | 131° |
| 2026-04-15 10:03 | 53.58294 | 14.90996 | 148 ft | 25 kts | 131° |
| 2026-04-15 10:03 | 53.58185 | 14.91213 | 153 ft | 23 kts | 129° |
| 2026-04-15 10:04 | 53.58062 | 14.91448 | 158 ft | 30 kts | 131° |
| 2026-04-15 10:04 | 53.57916 | 14.91730 | 162 ft | 37 kts | 131° |
| 2026-04-15 10:04 | 53.57829 | 14.91751 | 162 ft | 0 kts | 222° |
| 2026-04-15 10:05 | 53.57793 | 14.91697 | 162 ft | 8 kts | 222° |
| 2026-04-15 10:05 | 53.57767 | 14.91603 | 163 ft | 0 kts | 304° |
| 2026-04-15 10:06 | 53.57856 | 14.91422 | 161 ft | 58 kts | 311° |
| 2026-04-15 10:06 | 53.58311 | 14.90537 | 145 ft | 139 kts | 310° |
| 2026-04-15 10:06 | 53.59038 | 14.89086 | 391 ft | 185 kts | 310° |
| 2026-04-15 10:06 | 53.59968 | 14.87337 | 870 ft | 211 kts | 313° |
| 2026-04-15 10:07 | 53.60977 | 14.85409 | 1512 ft | 227 kts | 310° |
| 2026-04-15 10:07 | 53.62039 | 14.83325 | 2155 ft | 242 kts | 310° |
| 2026-04-15 10:07 | 53.63044 | 14.80953 | 2840 ft | 259 kts | 293° |
| 2026-04-15 10:07 | 53.63287 | 14.77857 | 3542 ft | 280 kts | 264° |
| 2026-04-15 10:08 | 53.62662 | 14.74669 | 4332 ft | 297 kts | 242° |
| 2026-04-15 10:08 | 53.61239 | 14.72048 | 5190 ft | 313 kts | 217° |
| 2026-04-15 10:08 | 53.59240 | 14.70613 | 6056 ft | 325 kts | 193° |
| 2026-04-15 10:08 | 53.56968 | 14.70637 | 6939 ft | 334 kts | 169° |
| 2026-04-15 10:09 | 53.54831 | 14.72214 | 7834 ft | 340 kts | 147° |
| 2026-04-15 10:09 | 53.53068 | 14.74869 | 8752 ft | 343 kts | 134° |
| 2026-04-15 10:09 | 53.51527 | 14.77942 | 9694 ft | 344 kts | 130° |
| 2026-04-15 10:09 | 53.50047 | 14.81096 | 10582 ft | 344 kts | 130° |
| 2026-04-15 10:10 | 53.48564 | 14.84241 | 11443 ft | 343 kts | 130° |
| 2026-04-15 10:10 | 53.47066 | 14.87342 | 12272 ft | 342 kts | 132° |
| 2026-04-15 10:10 | 53.45550 | 14.90413 | 13069 ft | 345 kts | 133° |
| 2026-04-15 10:10 | 53.43996 | 14.93504 | 13628 ft | 356 kts | 133° |
| 2026-04-15 10:11 | 53.42375 | 14.96696 | 14332 ft | 362 kts | 134° |
| 2026-04-15 10:11 | 53.40729 | 14.99919 | 15083 ft | 365 kts | 134° |
| 2026-04-15 10:11 | 53.39068 | 15.03161 | 15843 ft | 369 kts | 134° |
| 2026-04-15 10:11 | 53.37385 | 15.06438 | 16580 ft | 373 kts | 134° |
| 2026-04-15 10:12 | 53.35678 | 15.09754 | 17317 ft | 378 kts | 133° |
| 2026-04-15 10:12 | 53.33953 | 15.13102 | 18037 ft | 383 kts | 133° |
| 2026-04-15 10:12 | 53.32227 | 15.16450 | 18731 ft | 387 kts | 133° |
| 2026-04-15 10:12 | 53.30458 | 15.19878 | 19335 ft | 392 kts | 133° |
| 2026-04-15 10:13 | 53.28670 | 15.23357 | 19911 ft | 397 kts | 133° |
| 2026-04-15 10:13 | 53.26845 | 15.26866 | 20497 ft | 403 kts | 134° |
| 2026-04-15 10:13 | 53.24836 | 15.30136 | 21054 ft | 405 kts | 143° |
| 2026-04-15 10:13 | 53.22598 | 15.33006 | 21665 ft | 408 kts | 146° |
| 2026-04-15 10:14 | 53.20294 | 15.35814 | 22221 ft | 413 kts | 147° |
| 2026-04-15 10:14 | 53.17954 | 15.38638 | 22762 ft | 418 kts | 147° |
| 2026-04-15 10:14 | 53.15617 | 15.41476 | 23296 ft | 423 kts | 146° |
| 2026-04-15 10:14 | 53.13234 | 15.44395 | 23839 ft | 428 kts | 146° |
| 2026-04-15 10:15 | 53.10829 | 15.47364 | 24344 ft | 431 kts | 146° |
| 2026-04-15 10:15 | 53.08428 | 15.50342 | 24926 ft | 431 kts | 146° |
| 2026-04-15 10:15 | 53.06016 | 15.53336 | 25399 ft | 435 kts | 146° |
| 2026-04-15 10:15 | 53.03578 | 15.56360 | 25825 ft | 439 kts | 145° |
| 2026-04-15 10:16 | 53.01119 | 15.59405 | 26268 ft | 443 kts | 145° |
| 2026-04-15 10:16 | 52.98639 | 15.62473 | 26730 ft | 446 kts | 145° |
| 2026-04-15 10:16 | 52.96144 | 15.65553 | 27179 ft | 449 kts | 145° |
| 2026-04-15 10:16 | 52.93627 | 15.68656 | 27590 ft | 452 kts | 145° |
| 2026-04-15 10:17 | 52.91091 | 15.71777 | 28005 ft | 456 kts | 144° |
| 2026-04-15 10:17 | 52.88571 | 15.74874 | 28418 ft | 459 kts | 144° |
| 2026-04-15 10:17 | 52.85999 | 15.78033 | 28824 ft | 462 kts | 144° |
| 2026-04-15 10:17 | 52.83407 | 15.81208 | 29220 ft | 465 kts | 144° |
| 2026-04-15 10:18 | 52.80802 | 15.84407 | 29674 ft | 466 kts | 143° |
| 2026-04-15 10:18 | 52.78245 | 15.87706 | 30155 ft | 467 kts | 142° |
| 2026-04-15 10:18 | 52.75708 | 15.91092 | 30479 ft | 471 kts | 141° |
| 2026-04-15 10:18 | 52.73161 | 15.94521 | 30726 ft | 475 kts | 141° |
| 2026-04-15 10:19 | 52.70586 | 15.97972 | 30982 ft | 479 kts | 141° |
| 2026-04-15 10:19 | 52.68021 | 16.01384 | 31251 ft | 482 kts | 141° |
| 2026-04-15 10:19 | 52.65397 | 16.04849 | 31521 ft | 485 kts | 141° |
| 2026-04-15 10:19 | 52.62756 | 16.08321 | 31789 ft | 487 kts | 141° |
| 2026-04-15 10:20 | 52.60110 | 16.11792 | 32195 ft | 486 kts | 141° |
| 2026-04-15 10:20 | 52.57470 | 16.15251 | 32597 ft | 485 kts | 141° |
| 2026-04-15 10:20 | 52.54826 | 16.18709 | 32966 ft | 485 kts | 141° |
| 2026-04-15 10:20 | 52.52215 | 16.22121 | 33743 ft | 475 kts | 141° |
| 2026-04-15 10:21 | 52.49632 | 16.25493 | 34143 ft | 475 kts | 141° |
| 2026-04-15 10:21 | 52.47066 | 16.28840 | 34275 ft | 480 kts | 141° |
| 2026-04-15 10:21 | 52.44442 | 16.32259 | 34466 ft | 483 kts | 141° |
| 2026-04-15 10:21 | 52.41814 | 16.35678 | 34820 ft | 481 kts | 141° |
| 2026-04-15 10:22 | 52.39206 | 16.39067 | 35258 ft | 477 kts | 141° |
| 2026-04-15 10:22 | 52.36617 | 16.42424 | 35665 ft | 474 kts | 142° |
| 2026-04-15 10:22 | 52.34038 | 16.45764 | 35983 ft | 473 kts | 142° |
| 2026-04-15 10:22 | 52.31461 | 16.49097 | 36256 ft | 473 kts | 142° |
| 2026-04-15 10:23 | 52.28885 | 16.52424 | 36564 ft | 471 kts | 142° |
| 2026-04-15 10:23 | 52.26319 | 16.55732 | 37000 ft | 467 kts | 142° |
| 2026-04-15 10:23 | 52.23813 | 16.58958 | 37308 ft | 466 kts | 142° |
| 2026-04-15 10:24 | 52.18679 | 16.65554 | 37292 ft | 471 kts | 142° |
| 2026-04-15 10:24 | 52.13551 | 16.72132 | 37278 ft | 465 kts | 141° |
| 2026-04-15 10:25 | 52.08919 | 16.79411 | 37293 ft | 463 kts | 133° |
| 2026-04-15 10:25 | 52.04509 | 16.87051 | 37287 ft | 464 kts | 133° |
| 2026-04-15 10:26 | 52.00097 | 16.94583 | 37296 ft | 463 kts | 134° |
| 2026-04-15 10:26 | 51.95616 | 17.02101 | 37285 ft | 464 kts | 134° |
| 2026-04-15 10:27 | 51.91121 | 17.09596 | 37277 ft | 464 kts | 134° |
| 2026-04-15 10:27 | 51.86625 | 17.17080 | 37281 ft | 464 kts | 134° |
| 2026-04-15 10:28 | 51.82157 | 17.24501 | 37279 ft | 463 kts | 134° |
| 2026-04-15 10:28 | 51.77693 | 17.32012 | 37283 ft | 463 kts | 134° |
| 2026-04-15 10:29 | 51.73227 | 17.39520 | 37276 ft | 463 kts | 134° |
| 2026-04-15 10:29 | 51.68725 | 17.46958 | 37264 ft | 463 kts | 135° |
| 2026-04-15 10:30 | 51.64236 | 17.54282 | 37271 ft | 462 kts | 135° |
| 2026-04-15 10:30 | 51.59717 | 17.61643 | 37274 ft | 462 kts | 135° |
| 2026-04-15 10:31 | 51.55201 | 17.68991 | 37276 ft | 462 kts | 135° |
| 2026-04-15 10:31 | 51.50659 | 17.76366 | 36702 ft | 467 kts | 135° |
| 2026-04-15 10:31 | 51.48382 | 17.80055 | 36175 ft | 465 kts | 135° |
| 2026-04-15 10:32 | 51.46107 | 17.83735 | 35580 ft | 465 kts | 135° |
| 2026-04-15 10:32 | 51.43858 | 17.87367 | 34988 ft | 466 kts | 135° |
| 2026-04-15 10:32 | 51.41569 | 17.91058 | 34355 ft | 468 kts | 135° |
| 2026-04-15 10:32 | 51.39270 | 17.94759 | 33605 ft | 470 kts | 135° |
| 2026-04-15 10:33 | 51.36963 | 17.98467 | 32897 ft | 470 kts | 135° |
| 2026-04-15 10:33 | 51.34661 | 18.02163 | 32232 ft | 469 kts | 135° |
| 2026-04-15 10:33 | 51.32354 | 18.05861 | 31576 ft | 468 kts | 135° |
| 2026-04-15 10:33 | 51.30073 | 18.09513 | 31136 ft | 462 kts | 136° |
| 2026-04-15 10:34 | 51.27810 | 18.13130 | 30625 ft | 458 kts | 136° |
| 2026-04-15 10:34 | 51.25598 | 18.16660 | 30114 ft | 454 kts | 136° |
| 2026-04-15 10:34 | 51.23377 | 18.20198 | 29573 ft | 449 kts | 136° |
| 2026-04-15 10:34 | 51.21182 | 18.23691 | 29075 ft | 443 kts | 136° |
| 2026-04-15 10:35 | 51.19016 | 18.27133 | 28586 ft | 438 kts | 136° |
| 2026-04-15 10:35 | 51.16869 | 18.30539 | 28087 ft | 433 kts | 136° |
| 2026-04-15 10:35 | 51.14743 | 18.33907 | 27611 ft | 428 kts | 136° |
| 2026-04-15 10:35 | 51.12639 | 18.37237 | 27116 ft | 425 kts | 136° |
| 2026-04-15 10:36 | 51.10581 | 18.40490 | 26645 ft | 421 kts | 136° |
| 2026-04-15 10:36 | 51.08512 | 18.43754 | 26176 ft | 417 kts | 136° |
| 2026-04-15 10:36 | 51.06460 | 18.46990 | 25704 ft | 414 kts | 136° |
| 2026-04-15 10:36 | 51.04419 | 18.50202 | 25233 ft | 411 kts | 136° |
| 2026-04-15 10:37 | 51.02397 | 18.53383 | 24772 ft | 408 kts | 136° |
| 2026-04-15 10:37 | 51.00386 | 18.56541 | 24323 ft | 405 kts | 136° |
| 2026-04-15 10:37 | 50.98394 | 18.59697 | 23868 ft | 403 kts | 134° |
| 2026-04-15 10:37 | 50.96575 | 18.63038 | 23515 ft | 397 kts | 130° |
| 2026-04-15 10:38 | 50.94828 | 18.66414 | 23048 ft | 394 kts | 130° |
| 2026-04-15 10:38 | 50.93137 | 18.69728 | 22586 ft | 391 kts | 130° |
| 2026-04-15 10:38 | 50.91433 | 18.73066 | 22121 ft | 388 kts | 130° |
| 2026-04-15 10:38 | 50.89738 | 18.76371 | 21667 ft | 385 kts | 130° |
| 2026-04-15 10:39 | 50.88051 | 18.79644 | 21222 ft | 383 kts | 130° |
| 2026-04-15 10:39 | 50.86370 | 18.82890 | 20785 ft | 380 kts | 130° |
| 2026-04-15 10:39 | 50.84694 | 18.86117 | 20338 ft | 378 kts | 130° |
| 2026-04-15 10:39 | 50.83028 | 18.89317 | 19911 ft | 376 kts | 131° |
| 2026-04-15 10:40 | 50.81367 | 18.92500 | 19474 ft | 374 kts | 131° |
| 2026-04-15 10:40 | 50.79735 | 18.95623 | 19056 ft | 373 kts | 131° |
| 2026-04-15 10:40 | 50.78082 | 18.98784 | 18599 ft | 373 kts | 131° |
| 2026-04-15 10:40 | 50.76433 | 19.01930 | 18109 ft | 371 kts | 131° |
| 2026-04-15 10:41 | 50.74791 | 19.05061 | 17644 ft | 368 kts | 131° |
| 2026-04-15 10:41 | 50.73162 | 19.08164 | 17197 ft | 366 kts | 131° |
| 2026-04-15 10:41 | 50.71543 | 19.11243 | 16763 ft | 363 kts | 131° |
| 2026-04-15 10:41 | 50.69936 | 19.14296 | 16336 ft | 360 kts | 131° |
| 2026-04-15 10:42 | 50.68338 | 19.17329 | 15913 ft | 358 kts | 130° |
| 2026-04-15 10:42 | 50.66753 | 19.20334 | 15491 ft | 356 kts | 130° |
| 2026-04-15 10:42 | 50.65198 | 19.23276 | 15080 ft | 353 kts | 130° |
| 2026-04-15 10:42 | 50.63630 | 19.26242 | 14670 ft | 351 kts | 130° |
| 2026-04-15 10:43 | 50.62072 | 19.29185 | 14266 ft | 349 kts | 130° |
| 2026-04-15 10:43 | 50.60521 | 19.32112 | 13828 ft | 347 kts | 130° |
| 2026-04-15 10:43 | 50.58977 | 19.35023 | 13368 ft | 345 kts | 131° |
| 2026-04-15 10:43 | 50.57442 | 19.37911 | 12940 ft | 343 kts | 131° |
| 2026-04-15 10:44 | 50.55920 | 19.40775 | 12526 ft | 340 kts | 131° |
| 2026-04-15 10:44 | 50.54408 | 19.43614 | 12118 ft | 337 kts | 131° |
| 2026-04-15 10:44 | 50.52926 | 19.46395 | 11716 ft | 335 kts | 131° |
| 2026-04-15 10:44 | 50.51435 | 19.49189 | 11322 ft | 333 kts | 131° |
| 2026-04-15 10:45 | 50.49952 | 19.51966 | 10913 ft | 331 kts | 131° |
| 2026-04-15 10:45 | 50.48482 | 19.54716 | 10657 ft | 324 kts | 131° |
| 2026-04-15 10:45 | 50.47058 | 19.57379 | 10514 ft | 314 kts | 131° |
| 2026-04-15 10:45 | 50.45675 | 19.59961 | 10373 ft | 304 kts | 131° |
| 2026-04-15 10:46 | 50.44330 | 19.62469 | 10245 ft | 296 kts | 131° |
| 2026-04-15 10:46 | 50.43007 | 19.64934 | 9908 ft | 295 kts | 131° |
| 2026-04-15 10:46 | 50.41692 | 19.67381 | 9597 ft | 292 kts | 131° |
| 2026-04-15 10:46 | 50.40384 | 19.69811 | 9288 ft | 290 kts | 131° |
| 2026-04-15 10:47 | 50.39090 | 19.72215 | 8983 ft | 288 kts | 131° |
| 2026-04-15 10:47 | 50.37820 | 19.74572 | 8687 ft | 285 kts | 131° |
| 2026-04-15 10:47 | 50.36544 | 19.76938 | 8387 ft | 283 kts | 131° |
| 2026-04-15 10:47 | 50.35277 | 19.79286 | 8098 ft | 281 kts | 131° |
| 2026-04-15 10:48 | 50.34020 | 19.81613 | 7805 ft | 279 kts | 131° |
| 2026-04-15 10:48 | 50.32770 | 19.83924 | 7341 ft | 278 kts | 131° |
| 2026-04-15 10:48 | 50.31535 | 19.86206 | 7020 ft | 270 kts | 131° |
| 2026-04-15 10:48 | 50.30338 | 19.88418 | 6710 ft | 264 kts | 131° |
| 2026-04-15 10:49 | 50.29153 | 19.90603 | 6429 ft | 264 kts | 131° |
| 2026-04-15 10:49 | 50.27977 | 19.92771 | 6129 ft | 266 kts | 131° |
| 2026-04-15 10:49 | 50.26780 | 19.94975 | 5817 ft | 266 kts | 131° |
| 2026-04-15 10:49 | 50.25586 | 19.97173 | 5586 ft | 262 kts | 131° |
| 2026-04-15 10:50 | 50.24425 | 19.99310 | 5468 ft | 254 kts | 131° |
| 2026-04-15 10:50 | 50.23298 | 20.01379 | 5352 ft | 246 kts | 131° |
| 2026-04-15 10:50 | 50.22203 | 20.03388 | 5241 ft | 239 kts | 131° |
| 2026-04-15 10:50 | 50.21136 | 20.05323 | 5136 ft | 231 kts | 135° |
| 2026-04-15 10:51 | 50.19802 | 20.06541 | 5058 ft | 217 kts | 168° |
| 2026-04-15 10:51 | 50.18336 | 20.07019 | 4979 ft | 219 kts | 169° |
| 2026-04-15 10:51 | 50.16840 | 20.07514 | 4812 ft | 226 kts | 169° |
| 2026-04-15 10:51 | 50.15298 | 20.08025 | 4572 ft | 225 kts | 169° |
| 2026-04-15 10:52 | 50.13794 | 20.08508 | 4351 ft | 217 kts | 173° |
| 2026-04-15 10:52 | 50.12363 | 20.08140 | 4085 ft | 208 kts | 215° |
| 2026-04-15 10:52 | 50.11597 | 20.06406 | 4016 ft | 191 kts | 260° |
| 2026-04-15 10:52 | 50.11431 | 20.04444 | 3951 ft | 178 kts | 258° |
| 2026-04-15 10:53 | 50.11163 | 20.02594 | 3747 ft | 175 kts | 257° |
| 2026-04-15 10:53 | 50.10897 | 20.00781 | 3526 ft | 167 kts | 257° |
| 2026-04-15 10:53 | 50.10655 | 19.99078 | 3355 ft | 153 kts | 257° |
| 2026-04-15 10:53 | 50.10430 | 19.97481 | 3128 ft | 149 kts | 257° |
| 2026-04-15 10:54 | 50.10210 | 19.95917 | 2919 ft | 150 kts | 258° |
| 2026-04-15 10:54 | 50.09988 | 19.94346 | 2702 ft | 147 kts | 258° |
| 2026-04-15 10:54 | 50.09771 | 19.92797 | 2504 ft | 147 kts | 258° |
| 2026-04-15 10:54 | 50.09553 | 19.91241 | 2316 ft | 147 kts | 259° |
| 2026-04-15 10:55 | 50.09336 | 19.89696 | 2093 ft | 144 kts | 258° |
| 2026-04-15 10:55 | 50.09124 | 19.88178 | 1880 ft | 142 kts | 258° |
| 2026-04-15 10:55 | 50.08914 | 19.86671 | 1693 ft | 144 kts | 257° |
| 2026-04-15 10:55 | 50.08688 | 19.85058 | 1484 ft | 160 kts | 257° |
| 2026-04-15 10:56 | 50.08456 | 19.83394 | 1251 ft | 156 kts | 257° |
| 2026-04-15 10:56 | 50.08230 | 19.81770 | 1050 ft | 151 kts | 257° |
| 2026-04-15 10:56 | 50.08008 | 19.80159 | 867 ft | 153 kts | 257° |
| 2026-04-15 10:56 | 50.07792 | 19.78623 | 800 ft | 130 kts | 257° |
| 2026-04-15 10:57 | 50.07647 | 19.77574 | 798 ft | 58 kts | 257° |
| 2026-04-15 10:57 | 50.07451 | 19.76859 | 799 ft | 27 kts | 168° |
| 2026-04-15 10:57 | 50.07396 | 19.76878 | 799 ft | 0 kts | 167° |
| 2026-04-15 10:58 | 50.07393 | 19.76879 | 799 ft | 3 kts | 167° |
| 2026-04-15 10:58 | 50.07317 | 19.76975 | 799 ft | 27 kts | 92° |
| 2026-04-15 10:58 | 50.07361 | 19.77334 | 799 ft | 35 kts | 77° |
| 2026-04-15 10:58 | 50.07412 | 19.77701 | 799 ft | 34 kts | 78° |
| 2026-04-15 10:59 | 50.07459 | 19.78051 | 799 ft | 32 kts | 78° |
| 2026-04-15 10:59 | 50.07505 | 19.78374 | 799 ft | 28 kts | 78° |
| 2026-04-15 10:59 | 50.07545 | 19.78665 | 799 ft | 27 kts | 78° |
| 2026-04-15 10:59 | 50.07583 | 19.78936 | 799 ft | 25 kts | 77° |
| 2026-04-15 11:00 | 50.07620 | 19.79188 | 799 ft | 23 kts | 77° |
| 2026-04-15 11:00 | 50.07653 | 19.79425 | 799 ft | 22 kts | 77° |
| 2026-04-15 11:00 | 50.07683 | 19.79659 | 799 ft | 22 kts | 78° |
| 2026-04-15 11:00 | 50.07687 | 19.79863 | 799 ft | 16 kts | 144° |
| 2026-04-15 11:01 | 50.07623 | 19.79897 | 799 ft | 5 kts | 167° |
| 2026-04-15 11:01 | 50.07547 | 19.79921 | 799 ft | 15 kts | 162° |
| 2026-04-15 11:01 | 50.07521 | 19.80058 | 799 ft | 14 kts | 78° |
| 2026-04-15 11:01 | 50.07488 | 19.80138 | 799 ft | 6 kts | 164° |
| 2026-04-15 11:02 | 50.07481 | 19.80141 | 799 ft | 0 kts | 164° |